sensor_id;sensor_type;location;lat;lon;timestamp;P1;durP1;ratioP1;P2;durP2;ratioP2
46701;SDS011;33449;50.712;7.124;2022-12-18T00:01:33;46.53;;;18.70;;
46701;SDS011;33449;50.712;7.124;2022-12-18T00:04:02;53.47;;;18.27;;
46701;SDS011;33449;50.712;7.124;2022-12-18T00:06:34;45.57;;;19.07;;
46701;SDS011;33449;50.712;7.124;2022-12-18T00:09:02;49.53;;;17.87;;
46701;SDS011;33449;50.712;7.124;2022-12-18T00:11:30;57.00;;;20.27;;
46701;SDS011;33449;50.712;7.124;2022-12-18T00:13:57;50.67;;;20.00;;
46701;SDS011;33449;50.712;7.124;2022-12-18T00:16:25;48.10;;;19.93;;
46701;SDS011;33449;50.712;7.124;2022-12-18T00:18:54;53.50;;;19.47;;
46701;SDS011;33449;50.712;7.124;2022-12-18T00:21:25;55.17;;;22.93;;
46701;SDS011;33449;50.712;7.124;2022-12-18T00:23:52;51.80;;;20.10;;
46701;SDS011;33449;50.712;7.124;2022-12-18T00:26:20;59.87;;;20.47;;
46701;SDS011;33449;50.712;7.124;2022-12-18T00:29:11;55.85;;;22.25;;
46701;SDS011;33449;50.712;7.124;2022-12-18T00:31:54;57.27;;;20.30;;
46701;SDS011;33449;50.712;7.124;2022-12-18T00:34:21;54.23;;;20.50;;
46701;SDS011;33449;50.712;7.124;2022-12-18T00:36:48;53.17;;;20.63;;
46701;SDS011;33449;50.712;7.124;2022-12-18T00:39:15;59.87;;;22.60;;
46701;SDS011;33449;50.712;7.124;2022-12-18T00:41:41;53.50;;;19.70;;
46701;SDS011;33449;50.712;7.124;2022-12-18T00:44:26;59.53;;;21.10;;
46701;SDS011;33449;50.712;7.124;2022-12-18T00:46:53;54.00;;;20.27;;
46701;SDS011;33449;50.712;7.124;2022-12-18T00:49:19;53.60;;;21.60;;
46701;SDS011;33449;50.712;7.124;2022-12-18T00:51:46;53.67;;;21.87;;
46701;SDS011;33449;50.712;7.124;2022-12-18T00:54:13;53.17;;;21.47;;
46701;SDS011;33449;50.712;7.124;2022-12-18T00:56:40;55.90;;;20.70;;
46701;SDS011;33449;50.712;7.124;2022-12-18T00:59:16;56.10;;;20.10;;
46701;SDS011;33449;50.712;7.124;2022-12-18T01:01:44;58.67;;;23.13;;
46701;SDS011;33449;50.712;7.124;2022-12-18T01:04:11;48.87;;;19.80;;
46701;SDS011;33449;50.712;7.124;2022-12-18T01:06:38;58.80;;;22.37;;
46701;SDS011;33449;50.712;7.124;2022-12-18T01:09:05;57.93;;;20.13;;
46701;SDS011;33449;50.712;7.124;2022-12-18T01:11:32;64.87;;;22.93;;
46701;SDS011;33449;50.712;7.124;2022-12-18T01:13:58;61.47;;;23.03;;
46701;SDS011;33449;50.712;7.124;2022-12-18T01:16:30;58.60;;;22.40;;
46701;SDS011;33449;50.712;7.124;2022-12-18T01:18:57;51.53;;;21.93;;
46701;SDS011;33449;50.712;7.124;2022-12-18T01:21:24;57.87;;;22.23;;
46701;SDS011;33449;50.712;7.124;2022-12-18T01:23:51;53.67;;;20.73;;
46701;SDS011;33449;50.712;7.124;2022-12-18T01:26:19;53.23;;;22.57;;
46701;SDS011;33449;50.712;7.124;2022-12-18T01:28:46;58.33;;;21.90;;
46701;SDS011;33449;50.712;7.124;2022-12-18T01:33:41;56.87;;;21.70;;
46701;SDS011;33449;50.712;7.124;2022-12-18T01:36:13;52.90;;;21.17;;
46701;SDS011;33449;50.712;7.124;2022-12-18T01:38:41;45.83;;;21.33;;
46701;SDS011;33449;50.712;7.124;2022-12-18T01:41:08;60.47;;;22.63;;
46701;SDS011;33449;50.712;7.124;2022-12-18T01:46:31;51.93;;;21.43;;
46701;SDS011;33449;50.712;7.124;2022-12-18T01:49:00;62.73;;;21.87;;
46701;SDS011;33449;50.712;7.124;2022-12-18T01:51:28;51.72;;;20.23;;
46701;SDS011;33449;50.712;7.124;2022-12-18T01:53:56;49.43;;;19.40;;
46701;SDS011;33449;50.712;7.124;2022-12-18T01:56:23;46.80;;;20.77;;
46701;SDS011;33449;50.712;7.124;2022-12-18T01:58:52;55.53;;;20.97;;
46701;SDS011;33449;50.712;7.124;2022-12-18T02:01:32;56.77;;;20.67;;
46701;SDS011;33449;50.712;7.124;2022-12-18T02:06:50;55.33;;;20.50;;
46701;SDS011;33449;50.712;7.124;2022-12-18T02:09:48;53.83;;;20.30;;
46701;SDS011;33449;50.712;7.124;2022-12-18T02:12:20;48.50;;;19.63;;
46701;SDS011;33449;50.712;7.124;2022-12-18T02:17:36;51.93;;;19.33;;
46701;SDS011;33449;50.712;7.124;2022-12-18T02:33:58;50.33;;;20.57;;
46701;SDS011;33449;50.712;7.124;2022-12-18T02:36:27;48.50;;;18.50;;
46701;SDS011;33449;50.712;7.124;2022-12-18T02:38:54;51.60;;;20.87;;
46701;SDS011;33449;50.712;7.124;2022-12-18T02:41:22;46.83;;;16.77;;
46701;SDS011;33449;50.712;7.124;2022-12-18T02:43:49;43.90;;;16.97;;
46701;SDS011;33449;50.712;7.124;2022-12-18T02:49:05;51.77;;;20.30;;
46701;SDS011;33449;50.712;7.124;2022-12-18T02:51:39;55.30;;;21.80;;
46701;SDS011;33449;50.712;7.124;2022-12-18T02:54:10;36.43;;;14.67;;
46701;SDS011;33449;50.712;7.124;2022-12-18T02:56:54;61.57;;;23.87;;
46701;SDS011;33449;50.712;7.124;2022-12-18T02:59:25;40.90;;;15.60;;
46701;SDS011;33449;50.712;7.124;2022-12-18T03:02:03;54.80;;;18.60;;
46701;SDS011;33449;50.712;7.124;2022-12-18T03:04:59;51.60;;;19.47;;
46701;SDS011;33449;50.712;7.124;2022-12-18T03:07:34;50.40;;;20.77;;
46701;SDS011;33449;50.712;7.124;2022-12-18T03:10:25;52.07;;;20.00;;
46701;SDS011;33449;50.712;7.124;2022-12-18T03:12:56;58.40;;;19.33;;
46701;SDS011;33449;50.712;7.124;2022-12-18T03:15:31;52.07;;;21.67;;
46701;SDS011;33449;50.712;7.124;2022-12-18T03:18:12;54.83;;;22.07;;
46701;SDS011;33449;50.712;7.124;2022-12-18T03:20:42;47.37;;;18.57;;
46701;SDS011;33449;50.712;7.124;2022-12-18T03:23:11;40.80;;;15.57;;
46701;SDS011;33449;50.712;7.124;2022-12-18T03:25:40;46.10;;;20.38;;
46701;SDS011;33449;50.712;7.124;2022-12-18T03:28:13;39.10;;;17.13;;
46701;SDS011;33449;50.712;7.124;2022-12-18T03:30:42;45.37;;;16.03;;
46701;SDS011;33449;50.712;7.124;2022-12-18T03:33:12;51.33;;;18.83;;
46701;SDS011;33449;50.712;7.124;2022-12-18T03:35:43;46.73;;;18.27;;
46701;SDS011;33449;50.712;7.124;2022-12-18T03:38:10;48.43;;;19.37;;
46701;SDS011;33449;50.712;7.124;2022-12-18T03:51:26;52.00;;;20.73;;
46701;SDS011;33449;50.712;7.124;2022-12-18T03:54:01;51.20;;;21.02;;
46701;SDS011;33449;50.712;7.124;2022-12-18T03:56:29;44.07;;;18.40;;
46701;SDS011;33449;50.712;7.124;2022-12-18T03:58:58;44.87;;;16.30;;
46701;SDS011;33449;50.712;7.124;2022-12-18T04:04:08;64.20;;;22.53;;
46701;SDS011;33449;50.712;7.124;2022-12-18T04:06:36;46.60;;;19.47;;
46701;SDS011;33449;50.712;7.124;2022-12-18T04:09:03;48.17;;;19.43;;
46701;SDS011;33449;50.712;7.124;2022-12-18T04:11:30;47.27;;;20.43;;
46701;SDS011;33449;50.712;7.124;2022-12-18T04:13:57;47.03;;;18.63;;
46701;SDS011;33449;50.712;7.124;2022-12-18T04:21:35;48.33;;;19.45;;
46701;SDS011;33449;50.712;7.124;2022-12-18T04:24:01;48.17;;;18.10;;
46701;SDS011;33449;50.712;7.124;2022-12-18T04:26:28;62.87;;;20.23;;
46701;SDS011;33449;50.712;7.124;2022-12-18T04:28:56;61.47;;;22.20;;
46701;SDS011;33449;50.712;7.124;2022-12-18T04:31:26;65.40;;;24.13;;
46701;SDS011;33449;50.712;7.124;2022-12-18T04:34:08;54.07;;;20.30;;
46701;SDS011;33449;50.712;7.124;2022-12-18T04:36:35;61.73;;;20.70;;
46701;SDS011;33449;50.712;7.124;2022-12-18T04:39:02;59.60;;;20.57;;
46701;SDS011;33449;50.712;7.124;2022-12-18T04:41:28;62.10;;;22.50;;
46701;SDS011;33449;50.712;7.124;2022-12-18T04:43:55;48.67;;;20.57;;
46701;SDS011;33449;50.712;7.124;2022-12-18T04:46:31;65.30;;;23.27;;
46701;SDS011;33449;50.712;7.124;2022-12-18T04:48:58;58.33;;;21.43;;
46701;SDS011;33449;50.712;7.124;2022-12-18T04:51:24;66.63;;;23.37;;
46701;SDS011;33449;50.712;7.124;2022-12-18T04:53:52;56.03;;;21.77;;
46701;SDS011;33449;50.712;7.124;2022-12-18T04:56:19;57.67;;;21.17;;
46701;SDS011;33449;50.712;7.124;2022-12-18T04:58:46;56.00;;;22.93;;
46701;SDS011;33449;50.712;7.124;2022-12-18T05:01:17;55.63;;;20.53;;
46701;SDS011;33449;50.712;7.124;2022-12-18T05:04:03;38.73;;;17.67;;
46701;SDS011;33449;50.712;7.124;2022-12-18T05:06:30;57.17;;;21.03;;
46701;SDS011;33449;50.712;7.124;2022-12-18T05:08:56;42.30;;;17.73;;
46701;SDS011;33449;50.712;7.124;2022-12-18T05:11:23;48.40;;;19.83;;
46701;SDS011;33449;50.712;7.124;2022-12-18T05:13:50;41.53;;;16.70;;
46701;SDS011;33449;50.712;7.124;2022-12-18T05:18:57;56.27;;;20.10;;
46701;SDS011;33449;50.712;7.124;2022-12-18T05:21:25;56.83;;;20.80;;
46701;SDS011;33449;50.712;7.124;2022-12-18T05:23:52;56.57;;;21.40;;
46701;SDS011;33449;50.712;7.124;2022-12-18T05:26:18;48.77;;;19.83;;
46701;SDS011;33449;50.712;7.124;2022-12-18T05:28:45;64.57;;;23.77;;
46701;SDS011;33449;50.712;7.124;2022-12-18T05:31:13;55.77;;;23.80;;
46701;SDS011;33449;50.712;7.124;2022-12-18T05:36:58;52.20;;;19.73;;
46701;SDS011;33449;50.712;7.124;2022-12-18T05:39:25;67.00;;;23.73;;
46701;SDS011;33449;50.712;7.124;2022-12-18T05:41:51;55.60;;;23.77;;
46701;SDS011;33449;50.712;7.124;2022-12-18T05:44:18;56.13;;;21.30;;
46701;SDS011;33449;50.712;7.124;2022-12-18T05:46:44;52.10;;;19.07;;
46701;SDS011;33449;50.712;7.124;2022-12-18T05:52:17;56.10;;;21.00;;
46701;SDS011;33449;50.712;7.124;2022-12-18T05:54:44;62.27;;;24.27;;
46701;SDS011;33449;50.712;7.124;2022-12-18T05:57:10;56.67;;;22.63;;
46701;SDS011;33449;50.712;7.124;2022-12-18T05:59:37;58.03;;;22.33;;
46701;SDS011;33449;50.712;7.124;2022-12-18T06:02:04;61.90;;;22.53;;
46701;SDS011;33449;50.712;7.124;2022-12-18T06:04:30;57.47;;;23.17;;
46701;SDS011;33449;50.712;7.124;2022-12-18T06:07:03;57.67;;;23.03;;
46701;SDS011;33449;50.712;7.124;2022-12-18T06:09:46;57.47;;;22.23;;
46701;SDS011;33449;50.712;7.124;2022-12-18T06:14:47;64.30;;;24.43;;
46701;SDS011;33449;50.712;7.124;2022-12-18T06:17:14;56.80;;;21.17;;
46701;SDS011;33449;50.712;7.124;2022-12-18T06:19:40;56.53;;;20.40;;
46701;SDS011;33449;50.712;7.124;2022-12-18T06:24:40;54.67;;;20.23;;
46701;SDS011;33449;50.712;7.124;2022-12-18T06:27:07;45.20;;;18.30;;
46701;SDS011;33449;50.712;7.124;2022-12-18T06:29:33;42.70;;;17.10;;
46701;SDS011;33449;50.712;7.124;2022-12-18T06:32:00;50.17;;;19.83;;
46701;SDS011;33449;50.712;7.124;2022-12-18T06:34:27;57.20;;;21.67;;
46701;SDS011;33449;50.712;7.124;2022-12-18T06:36:55;46.53;;;18.30;;
46701;SDS011;33449;50.712;7.124;2022-12-18T06:39:39;52.63;;;20.57;;
46701;SDS011;33449;50.712;7.124;2022-12-18T06:42:06;49.80;;;20.07;;
46701;SDS011;33449;50.712;7.124;2022-12-18T06:44:33;41.70;;;15.20;;
46701;SDS011;33449;50.712;7.124;2022-12-18T06:46:59;38.70;;;17.27;;
46701;SDS011;33449;50.712;7.124;2022-12-18T06:49:26;33.63;;;15.27;;
46701;SDS011;33449;50.712;7.124;2022-12-18T06:59:57;31.27;;;14.67;;
46701;SDS011;33449;50.712;7.124;2022-12-18T07:02:24;38.43;;;16.17;;
46701;SDS011;33449;50.712;7.124;2022-12-18T07:04:51;55.50;;;20.27;;
46701;SDS011;33449;50.712;7.124;2022-12-18T07:07:17;35.53;;;16.27;;
46701;SDS011;33449;50.712;7.124;2022-12-18T07:09:48;52.57;;;22.03;;
46701;SDS011;33449;50.712;7.124;2022-12-18T07:12:35;47.97;;;19.17;;
46701;SDS011;33449;50.712;7.124;2022-12-18T07:15:02;48.43;;;18.67;;
46701;SDS011;33449;50.712;7.124;2022-12-18T07:17:29;51.47;;;19.70;;
46701;SDS011;33449;50.712;7.124;2022-12-18T07:19:56;56.80;;;21.73;;
46701;SDS011;33449;50.712;7.124;2022-12-18T07:22:23;39.20;;;15.10;;
46701;SDS011;33449;50.712;7.124;2022-12-18T07:27:23;29.20;;;13.43;;
46701;SDS011;33449;50.712;7.124;2022-12-18T07:29:51;42.27;;;17.33;;
46701;SDS011;33449;50.712;7.124;2022-12-18T07:32:18;44.93;;;19.13;;
46701;SDS011;33449;50.712;7.124;2022-12-18T07:34:44;33.87;;;15.13;;
46701;SDS011;33449;50.712;7.124;2022-12-18T07:37:12;48.50;;;20.33;;
46701;SDS011;33449;50.712;7.124;2022-12-18T07:39:42;42.27;;;19.07;;
46701;SDS011;33449;50.712;7.124;2022-12-18T07:42:26;45.47;;;19.60;;
46701;SDS011;33449;50.712;7.124;2022-12-18T07:45:15;41.63;;;17.97;;
46701;SDS011;33449;50.712;7.124;2022-12-18T07:47:42;42.50;;;16.13;;
46701;SDS011;33449;50.712;7.124;2022-12-18T07:50:08;45.90;;;17.70;;
46701;SDS011;33449;50.712;7.124;2022-12-18T07:52:35;31.73;;;14.17;;
46701;SDS011;33449;50.712;7.124;2022-12-18T07:55:02;34.57;;;14.90;;
46701;SDS011;33449;50.712;7.124;2022-12-18T07:57:29;39.83;;;17.63;;
46701;SDS011;33449;50.712;7.124;2022-12-18T08:02:57;35.97;;;16.17;;
46701;SDS011;33449;50.712;7.124;2022-12-18T08:05:24;39.50;;;16.70;;
46701;SDS011;33449;50.712;7.124;2022-12-18T08:07:51;40.00;;;14.70;;
46701;SDS011;33449;50.712;7.124;2022-12-18T08:10:17;54.53;;;21.10;;
46701;SDS011;33449;50.712;7.124;2022-12-18T08:15:24;37.42;;;15.82;;
46701;SDS011;33449;50.712;7.124;2022-12-18T08:17:51;40.20;;;16.63;;
46701;SDS011;33449;50.712;7.124;2022-12-18T08:20:18;47.67;;;19.40;;
46701;SDS011;33449;50.712;7.124;2022-12-18T08:22:44;41.03;;;18.93;;
46701;SDS011;33449;50.712;7.124;2022-12-18T08:25:11;51.33;;;17.60;;
46701;SDS011;33449;50.712;7.124;2022-12-18T08:30:11;32.00;;;16.13;;
46701;SDS011;33449;50.712;7.124;2022-12-18T08:32:38;35.97;;;14.67;;
46701;SDS011;33449;50.712;7.124;2022-12-18T08:35:05;40.80;;;17.43;;
46701;SDS011;33449;50.712;7.124;2022-12-18T08:37:32;45.17;;;16.27;;
46701;SDS011;33449;50.712;7.124;2022-12-18T08:39:58;42.30;;;18.70;;
46701;SDS011;33449;50.712;7.124;2022-12-18T08:42:26;37.00;;;16.23;;
46701;SDS011;33449;50.712;7.124;2022-12-18T08:47:41;35.17;;;15.30;;
46701;SDS011;33449;50.712;7.124;2022-12-18T08:50:08;44.17;;;18.23;;
46701;SDS011;33449;50.712;7.124;2022-12-18T08:52:35;46.47;;;18.17;;
46701;SDS011;33449;50.712;7.124;2022-12-18T08:55:02;24.85;;;13.10;;
46701;SDS011;33449;50.712;7.124;2022-12-18T09:00:09;39.45;;;17.08;;
46701;SDS011;33449;50.712;7.124;2022-12-18T09:02:36;31.60;;;12.73;;
46701;SDS011;33449;50.712;7.124;2022-12-18T09:05:03;44.35;;;18.52;;
46701;SDS011;33449;50.712;7.124;2022-12-18T09:07:30;39.30;;;18.02;;
46701;SDS011;33449;50.712;7.124;2022-12-18T09:09:57;35.50;;;16.52;;
46701;SDS011;33449;50.712;7.124;2022-12-18T09:14:59;30.02;;;11.05;;
46701;SDS011;33449;50.712;7.124;2022-12-18T09:17:26;35.70;;;14.50;;
46701;SDS011;33449;50.712;7.124;2022-12-18T09:19:53;36.33;;;14.52;;
46701;SDS011;33449;50.712;7.124;2022-12-18T09:22:19;30.48;;;11.25;;
46701;SDS011;33449;50.712;7.124;2022-12-18T09:24:46;41.30;;;17.05;;
46701;SDS011;33449;50.712;7.124;2022-12-18T09:27:20;34.05;;;15.90;;
46701;SDS011;33449;50.712;7.124;2022-12-18T09:29:55;25.30;;;11.60;;
46701;SDS011;33449;50.712;7.124;2022-12-18T09:32:22;23.23;;;11.90;;
46701;SDS011;33449;50.712;7.124;2022-12-18T09:34:48;38.90;;;16.42;;
46701;SDS011;33449;50.712;7.124;2022-12-18T09:37:15;31.90;;;12.30;;
46701;SDS011;33449;50.712;7.124;2022-12-18T09:39:42;44.17;;;16.95;;
46701;SDS011;33449;50.712;7.124;2022-12-18T09:42:12;31.50;;;12.63;;
46701;SDS011;33449;50.712;7.124;2022-12-18T09:44:59;39.58;;;15.35;;
46701;SDS011;33449;50.712;7.124;2022-12-18T09:47:30;37.38;;;16.33;;
46701;SDS011;33449;50.712;7.124;2022-12-18T09:50:05;37.28;;;13.88;;
46701;SDS011;33449;50.712;7.124;2022-12-18T09:52:55;32.22;;;15.57;;
46701;SDS011;33449;50.712;7.124;2022-12-18T09:58:11;41.30;;;14.25;;
46701;SDS011;33449;50.712;7.124;2022-12-18T10:00:41;31.88;;;16.35;;
46701;SDS011;33449;50.712;7.124;2022-12-18T10:03:14;26.08;;;10.02;;
46701;SDS011;33449;50.712;7.124;2022-12-18T10:19:59;39.13;;;16.52;;
46701;SDS011;33449;50.712;7.124;2022-12-18T10:22:53;32.22;;;16.55;;
46701;SDS011;33449;50.712;7.124;2022-12-18T10:25:29;35.88;;;15.60;;
46701;SDS011;33449;50.712;7.124;2022-12-18T10:28:13;40.88;;;17.05;;
46701;SDS011;33449;50.712;7.124;2022-12-18T10:31:07;32.10;;;13.30;;
46701;SDS011;33449;50.712;7.124;2022-12-18T10:33:39;35.53;;;17.20;;
46701;SDS011;33449;50.712;7.124;2022-12-18T10:36:05;43.05;;;16.58;;
46701;SDS011;33449;50.712;7.124;2022-12-18T10:38:32;36.35;;;14.35;;
46701;SDS011;33449;50.712;7.124;2022-12-18T10:43:37;35.83;;;15.73;;
46701;SDS011;33449;50.712;7.124;2022-12-18T10:46:11;30.45;;;13.63;;
46701;SDS011;33449;50.712;7.124;2022-12-18T10:51:21;31.70;;;14.02;;
46701;SDS011;33449;50.712;7.124;2022-12-18T10:59:08;30.75;;;13.27;;
46701;SDS011;33449;50.712;7.124;2022-12-18T11:01:49;33.75;;;16.13;;
46701;SDS011;33449;50.712;7.124;2022-12-18T11:06:53;38.33;;;16.63;;
46701;SDS011;33449;50.712;7.124;2022-12-18T11:09:30;36.13;;;18.20;;
46701;SDS011;33449;50.712;7.124;2022-12-18T11:14:53;29.67;;;11.50;;
46701;SDS011;33449;50.712;7.124;2022-12-18T11:17:40;28.53;;;13.43;;
46701;SDS011;33449;50.712;7.124;2022-12-18T11:20:21;34.05;;;15.32;;
46701;SDS011;33449;50.712;7.124;2022-12-18T11:22:59;28.95;;;13.88;;
46701;SDS011;33449;50.712;7.124;2022-12-18T11:25:38;35.47;;;15.80;;
46701;SDS011;33449;50.712;7.124;2022-12-18T11:28:08;31.90;;;13.85;;
46701;SDS011;33449;50.712;7.124;2022-12-18T11:31:27;37.65;;;16.45;;
46701;SDS011;33449;50.712;7.124;2022-12-18T11:33:47;34.75;;;16.70;;
46701;SDS011;33449;50.712;7.124;2022-12-18T11:36:48;38.97;;;19.88;;
46701;SDS011;33449;50.712;7.124;2022-12-18T11:39:20;42.05;;;19.02;;
46701;SDS011;33449;50.712;7.124;2022-12-18T11:41:53;28.63;;;14.38;;
46701;SDS011;33449;50.712;7.124;2022-12-18T11:47:36;45.38;;;17.33;;
46701;SDS011;33449;50.712;7.124;2022-12-18T11:50:34;34.75;;;16.02;;
46701;SDS011;33449;50.712;7.124;2022-12-18T11:53:23;32.13;;;14.98;;
46701;SDS011;33449;50.712;7.124;2022-12-18T11:59:00;27.48;;;13.02;;
46701;SDS011;33449;50.712;7.124;2022-12-18T12:01:48;36.33;;;17.83;;
46701;SDS011;33449;50.712;7.124;2022-12-18T12:10:01;42.85;;;17.90;;
46701;SDS011;33449;50.712;7.124;2022-12-18T12:12:47;41.38;;;17.35;;
46701;SDS011;33449;50.712;7.124;2022-12-18T12:15:51;45.88;;;19.30;;
46701;SDS011;33449;50.712;7.124;2022-12-18T12:21:40;47.15;;;21.05;;
46701;SDS011;33449;50.712;7.124;2022-12-18T12:40:46;32.22;;;13.10;;
46701;SDS011;33449;50.712;7.124;2022-12-18T12:46:19;48.00;;;19.35;;
46701;SDS011;33449;50.712;7.124;2022-12-18T12:48:49;37.85;;;17.77;;
46701;SDS011;33449;50.712;7.124;2022-12-18T12:51:20;63.80;;;21.75;;
46701;SDS011;33449;50.712;7.124;2022-12-18T12:54:11;52.63;;;19.58;;
46701;SDS011;33449;50.712;7.124;2022-12-18T13:05:24;50.97;;;20.65;;
46701;SDS011;33449;50.712;7.124;2022-12-18T13:13:49;37.10;;;17.30;;
46701;SDS011;33449;50.712;7.124;2022-12-18T13:16:18;48.35;;;20.95;;
46701;SDS011;33449;50.712;7.124;2022-12-18T13:18:53;47.63;;;20.42;;
46701;SDS011;33449;50.712;7.124;2022-12-18T13:21:24;47.13;;;19.73;;
46701;SDS011;33449;50.712;7.124;2022-12-18T13:23:53;42.72;;;19.25;;
46701;SDS011;33449;50.712;7.124;2022-12-18T13:26:29;43.95;;;18.30;;
46701;SDS011;33449;50.712;7.124;2022-12-18T13:29:21;56.53;;;20.98;;
46701;SDS011;33449;50.712;7.124;2022-12-18T13:32:16;35.33;;;16.00;;
46701;SDS011;33449;50.712;7.124;2022-12-18T13:43:43;39.53;;;18.48;;
46701;SDS011;33449;50.712;7.124;2022-12-18T13:46:19;43.97;;;19.83;;
46701;SDS011;33449;50.712;7.124;2022-12-18T13:51:42;44.95;;;20.80;;
46701;SDS011;33449;50.712;7.124;2022-12-18T13:54:27;41.83;;;19.85;;
46701;SDS011;33449;50.712;7.124;2022-12-18T13:57:03;56.85;;;24.10;;
46701;SDS011;33449;50.712;7.124;2022-12-18T14:02:17;42.83;;;18.48;;
46701;SDS011;33449;50.712;7.124;2022-12-18T14:04:57;47.47;;;20.35;;
46701;SDS011;33449;50.712;7.124;2022-12-18T14:07:24;56.58;;;22.75;;
46701;SDS011;33449;50.712;7.124;2022-12-18T14:09:57;34.88;;;15.65;;
46701;SDS011;33449;50.712;7.124;2022-12-18T14:12:49;47.40;;;21.50;;
46701;SDS011;33449;50.712;7.124;2022-12-18T14:20:43;24.08;;;13.70;;
46701;SDS011;33449;50.712;7.124;2022-12-18T14:23:36;53.65;;;21.67;;
46701;SDS011;33449;50.712;7.124;2022-12-18T14:34:08;46.05;;;22.67;;
46701;SDS011;33449;50.712;7.124;2022-12-18T14:36:41;48.22;;;22.35;;
46701;SDS011;33449;50.712;7.124;2022-12-18T14:39:18;53.80;;;23.25;;
46701;SDS011;33449;50.712;7.124;2022-12-18T14:41:48;61.40;;;24.08;;
46701;SDS011;33449;50.712;7.124;2022-12-18T14:44:14;50.28;;;21.70;;
46701;SDS011;33449;50.712;7.124;2022-12-18T14:46:42;42.65;;;19.60;;
46701;SDS011;33449;50.712;7.124;2022-12-18T14:51:49;51.08;;;23.25;;
46701;SDS011;33449;50.712;7.124;2022-12-18T14:54:19;53.22;;;20.48;;
46701;SDS011;33449;50.712;7.124;2022-12-18T14:56:47;48.60;;;20.33;;
46701;SDS011;33449;50.712;7.124;2022-12-18T14:59:16;39.35;;;19.02;;
46701;SDS011;33449;50.712;7.124;2022-12-18T15:04:46;44.22;;;20.55;;
46701;SDS011;33449;50.712;7.124;2022-12-18T15:07:14;47.55;;;21.13;;
46701;SDS011;33449;50.712;7.124;2022-12-18T15:12:48;54.83;;;23.65;;
46701;SDS011;33449;50.712;7.124;2022-12-18T15:18:04;52.22;;;20.92;;
46701;SDS011;33449;50.712;7.124;2022-12-18T15:20:41;38.08;;;16.15;;
46701;SDS011;33449;50.712;7.124;2022-12-18T15:26:02;50.78;;;18.90;;
46701;SDS011;33449;50.712;7.124;2022-12-18T15:28:54;53.85;;;22.17;;
46701;SDS011;33449;50.712;7.124;2022-12-18T15:31:41;43.55;;;20.55;;
46701;SDS011;33449;50.712;7.124;2022-12-18T15:36:34;52.92;;;21.23;;
46701;SDS011;33449;50.712;7.124;2022-12-18T15:39:04;46.83;;;17.17;;
46701;SDS011;33449;50.712;7.124;2022-12-18T15:41:32;45.00;;;17.48;;
46701;SDS011;33449;50.712;7.124;2022-12-18T15:46:36;43.60;;;19.83;;
46701;SDS011;33449;50.712;7.124;2022-12-18T15:49:04;51.95;;;21.83;;
46701;SDS011;33449;50.712;7.124;2022-12-18T15:51:32;47.80;;;21.63;;
46701;SDS011;33449;50.712;7.124;2022-12-18T15:54:01;53.85;;;23.77;;
46701;SDS011;33449;50.712;7.124;2022-12-18T15:56:29;56.72;;;21.80;;
46701;SDS011;33449;50.712;7.124;2022-12-18T15:59:19;54.33;;;25.15;;
46701;SDS011;33449;50.712;7.124;2022-12-18T16:01:47;36.05;;;17.55;;
46701;SDS011;33449;50.712;7.124;2022-12-18T16:04:50;49.40;;;23.42;;
46701;SDS011;33449;50.712;7.124;2022-12-18T16:07:38;42.72;;;18.77;;
46701;SDS011;33449;50.712;7.124;2022-12-18T16:10:04;45.60;;;20.98;;
46701;SDS011;33449;50.712;7.124;2022-12-18T16:12:31;57.67;;;25.50;;
46701;SDS011;33449;50.712;7.124;2022-12-18T16:14:59;47.60;;;21.38;;
46701;SDS011;33449;50.712;7.124;2022-12-18T16:17:26;56.47;;;24.25;;
46701;SDS011;33449;50.712;7.124;2022-12-18T16:19:58;39.53;;;19.38;;
46701;SDS011;33449;50.712;7.124;2022-12-18T16:22:26;58.75;;;25.30;;
46701;SDS011;33449;50.712;7.124;2022-12-18T16:24:54;58.80;;;26.38;;
46701;SDS011;33449;50.712;7.124;2022-12-18T16:27:22;56.42;;;21.92;;
46701;SDS011;33449;50.712;7.124;2022-12-18T16:29:49;69.65;;;27.27;;
46701;SDS011;33449;50.712;7.124;2022-12-18T16:32:18;53.50;;;24.88;;
46701;SDS011;33449;50.712;7.124;2022-12-18T16:34:46;66.00;;;25.85;;
46701;SDS011;33449;50.712;7.124;2022-12-18T16:37:30;60.72;;;25.35;;
46701;SDS011;33449;50.712;7.124;2022-12-18T16:39:57;59.92;;;23.75;;
46701;SDS011;33449;50.712;7.124;2022-12-18T16:42:24;61.95;;;25.92;;
46701;SDS011;33449;50.712;7.124;2022-12-18T16:44:50;64.38;;;25.88;;
46701;SDS011;33449;50.712;7.124;2022-12-18T16:49:47;48.42;;;21.77;;
46701;SDS011;33449;50.712;7.124;2022-12-18T16:52:24;61.03;;;24.30;;
46701;SDS011;33449;50.712;7.124;2022-12-18T16:54:50;53.53;;;24.02;;
46701;SDS011;33449;50.712;7.124;2022-12-18T16:57:18;55.00;;;24.13;;
46701;SDS011;33449;50.712;7.124;2022-12-18T16:59:50;75.30;;;28.52;;
46701;SDS011;33449;50.712;7.124;2022-12-18T17:02:24;66.63;;;27.25;;
46701;SDS011;33449;50.712;7.124;2022-12-18T17:07:23;42.50;;;16.67;;
46701;SDS011;33449;50.712;7.124;2022-12-18T17:09:50;55.95;;;21.90;;
46701;SDS011;33449;50.712;7.124;2022-12-18T17:12:19;54.97;;;25.63;;
46701;SDS011;33449;50.712;7.124;2022-12-18T17:14:46;50.17;;;23.35;;
46701;SDS011;33449;50.712;7.124;2022-12-18T17:17:12;54.83;;;23.70;;
46701;SDS011;33449;50.712;7.124;2022-12-18T17:22:16;43.08;;;20.35;;
46701;SDS011;33449;50.712;7.124;2022-12-18T17:24:43;54.05;;;21.70;;
46701;SDS011;33449;50.712;7.124;2022-12-18T17:27:09;56.72;;;24.02;;
46701;SDS011;33449;50.712;7.124;2022-12-18T17:29:36;65.32;;;24.67;;
46701;SDS011;33449;50.712;7.124;2022-12-18T17:32:11;55.45;;;27.40;;
46701;SDS011;33449;50.712;7.124;2022-12-18T17:34:38;61.13;;;28.42;;
46701;SDS011;33449;50.712;7.124;2022-12-18T17:37:05;54.75;;;24.40;;
46701;SDS011;33449;50.712;7.124;2022-12-18T17:39:31;78.30;;;30.75;;
46701;SDS011;33449;50.712;7.124;2022-12-18T17:41:59;58.60;;;26.85;;
46701;SDS011;33449;50.712;7.124;2022-12-18T17:44:26;58.38;;;27.08;;
46701;SDS011;33449;50.712;7.124;2022-12-18T17:46:53;52.10;;;21.30;;
46701;SDS011;33449;50.712;7.124;2022-12-18T17:49:20;61.63;;;26.00;;
46701;SDS011;33449;50.712;7.124;2022-12-18T17:51:47;67.10;;;26.45;;
46701;SDS011;33449;50.712;7.124;2022-12-18T17:54:14;57.47;;;26.13;;
46701;SDS011;33449;50.712;7.124;2022-12-18T17:56:40;55.70;;;25.15;;
46701;SDS011;33449;50.712;7.124;2022-12-18T17:59:07;49.38;;;19.73;;
46701;SDS011;33449;50.712;7.124;2022-12-18T18:04:07;67.00;;;27.45;;
46701;SDS011;33449;50.712;7.124;2022-12-18T18:06:34;63.03;;;28.08;;
46701;SDS011;33449;50.712;7.124;2022-12-18T18:09:04;45.03;;;18.60;;
46701;SDS011;33449;50.712;7.124;2022-12-18T18:11:36;57.78;;;27.27;;
46701;SDS011;33449;50.712;7.124;2022-12-18T18:14:21;54.95;;;24.08;;
46701;SDS011;33449;50.712;7.124;2022-12-18T18:16:49;60.38;;;25.05;;
46701;SDS011;33449;50.712;7.124;2022-12-18T18:19:18;83.60;;;31.67;;
46701;SDS011;33449;50.712;7.124;2022-12-18T18:22:17;59.25;;;28.45;;
46701;SDS011;33449;50.712;7.124;2022-12-18T18:24:59;64.80;;;29.50;;
46701;SDS011;33449;50.712;7.124;2022-12-18T18:27:27;55.38;;;24.98;;
46701;SDS011;33449;50.712;7.124;2022-12-18T18:30:00;71.30;;;28.67;;
46701;SDS011;33449;50.712;7.124;2022-12-18T18:32:26;57.53;;;23.33;;